Time;durP1;ratioP1;P1;durP2;ratioP2;P2;SDS_P1;SDS_P2;PMS_P1;PMS_P2;Temp;Humidity;BMP_temperature;BMP_pressure;BME280_temperature;BME280_humidity;BME280_pressure;Samples;Min_cycle;Max_cycle;Signal;HPM_P1;HPM_P2
2023/06/04 00:00:05;;;;;;;0.60;0.10;;;17.60;1.00;;;;;;4938451;29;20458;-76
2023/06/04 04:02:44;;;;;;;0.97;0.87;;;15.00;1.00;;;;;;5064400;23;20513;-75
2023/06/04 04:05:12;;;;;;;0.60;0.10;;;14.90;1.00;;;;;;4999278;28;20454;-75
2023/06/04 04:07:43;;;;;;;0.60;0.10;;;14.70;1.00;;;;;;4997250;28;20446;-75
2023/06/04 04:10:11;;;;;;;0.70;0.30;;;14.70;1.00;;;;;;4996513;28;20480;-76
2023/06/04 04:12:39;;;;;;;0.60;0.20;;;14.60;1.00;;;;;;4995337;28;20471;-76
2023/06/04 04:15:08;;;;;;;1.80;0.40;;;14.70;1.00;;;;;;5002220;23;21051;-76
2023/06/04 04:17:36;;;;;;;0.60;0.20;;;14.70;1.00;;;;;;4960182;29;20472;-75
2023/06/04 04:20:06;;;;;;;0.60;0.20;;;14.70;1.00;;;;;;4959116;29;20462;-76
2023/06/04 04:22:34;;;;;;;0.60;0.10;;;14.70;1.00;;;;;;4958569;29;20550;-76
2023/06/04 04:25:02;;;;;;;3.03;0.30;;;14.70;1.00;;;;;;4959219;28;20519;-76
2023/06/04 04:27:31;;;;;;;0.70;0.30;;;14.60;1.00;;;;;;4960064;29;20448;-75
2023/06/04 04:30:00;;;;;;;1.27;0.40;;;14.60;1.00;;;;;;4958998;29;20451;-76
2023/06/04 04:32:28;;;;;;;0.60;0.20;;;14.60;1.00;;;;;;4957326;29;20463;-76
2023/06/04 04:34:57;;;;;;;0.80;0.57;;;14.60;1.00;;;;;;4958201;28;20483;-76
2023/06/04 04:37:26;;;;;;;0.60;0.20;;;14.70;1.00;;;;;;4958529;29;20479;-77
2023/06/04 04:39:54;;;;;;;1.10;0.40;;;14.60;1.00;;;;;;4959211;29;20462;-76
2023/06/04 04:42:22;;;;;;;3.03;0.30;;;14.60;1.00;;;;;;4957281;29;20442;-76
2023/06/04 04:44:50;;;;;;;0.60;0.10;;;14.60;1.00;;;;;;4957636;28;20555;-76
2023/06/04 04:47:18;;;;;;;1.37;1.27;;;14.60;1.00;;;;;;4957857;29;20460;-76
2023/06/04 04:49:46;;;;;;;0.60;0.10;;;14.60;1.00;;;;;;4958151;29;20463;-76
2023/06/04 04:52:17;;;;;;;0.60;0.20;;;14.60;1.00;;;;;;4957249;29;20458;-76
2023/06/04 04:54:46;;;;;;;4.43;0.67;;;14.60;1.00;;;;;;4957368;28;20511;-76
2023/06/04 04:57:14;;;;;;;0.60;0.10;;;14.60;1.00;;;;;;4957204;29;20462;-76
2023/06/04 04:59:42;;;;;;;2.80;0.60;;;14.60;1.00;;;;;;4957426;29;20439;-76
2023/06/04 05:02:10;;;;;;;0.60;0.20;;;14.70;1.00;;;;;;4957716;28;20507;-74
2023/06/04 05:04:38;;;;;;;1.00;0.77;;;14.70;1.00;;;;;;4948223;28;20519;-76
2023/06/04 05:07:06;;;;;;;0.60;0.20;;;14.60;1.00;;;;;;4956635;29;20580;-76
2023/06/04 05:09:34;;;;;;;0.60;0.10;;;14.70;1.00;;;;;;4956548;29;20478;-76
2023/06/04 05:12:04;;;;;;;0.60;0.17;;;14.70;1.00;;;;;;4956243;29;20443;-76
2023/06/04 05:14:32;;;;;;;1.10;0.23;;;14.80;1.00;;;;;;4956091;29;20528;-75
2023/06/04 05:16:59;;;;;;;0.83;0.30;;;14.90;1.00;;;;;;4956300;29;20470;-77
2023/06/04 05:19:27;;;;;;;0.60;0.23;;;14.90;1.00;;;;;;4949468;29;20463;-76
2023/06/04 05:21:55;;;;;;;2.43;0.90;;;15.00;1.00;;;;;;4956168;29;20445;-76
2023/06/04 05:24:23;;;;;;;0.97;0.20;;;14.90;1.00;;;;;;4955956;29;20465;-76
2023/06/04 05:26:51;;;;;;;0.80;0.30;;;15.00;1.00;;;;;;4952320;29;20556;-76
2023/06/04 05:29:20;;;;;;;0.90;0.30;;;15.10;1.00;;;;;;4955441;29;20524;-76
2023/06/04 05:31:48;;;;;;;0.60;0.10;;;15.10;1.00;;;;;;4952288;29;20558;-76
2023/06/04 05:34:16;;;;;;;0.83;0.83;;;15.10;1.00;;;;;;4948545;29;20934;-75
2023/06/04 05:36:44;;;;;;;0.60;0.10;;;15.20;1.00;;;;;;4955571;29;21034;-75
2023/06/04 05:39:13;;;;;;;0.70;0.30;;;15.20;1.00;;;;;;4955723;29;20451;-76
2023/06/04 05:41:43;;;;;;;0.60;0.10;;;15.20;1.00;;;;;;4949982;29;20460;-75
2023/06/04 05:44:11;;;;;;;0.60;0.10;;;15.40;1.00;;;;;;4955430;29;20536;-75
2023/06/04 05:46:40;;;;;;;0.60;0.20;;;15.50;1.00;;;;;;4947241;29;20499;-76
2023/06/04 05:49:08;;;;;;;0.60;0.10;;;15.50;1.00;;;;;;4957997;28;20462;-75
2023/06/04 05:51:36;;;;;;;0.60;0.10;;;15.50;1.00;;;;;;4974664;28;20457;-76
2023/06/04 05:54:04;;;;;;;0.60;0.20;;;15.60;1.00;;;;;;4961427;28;20457;-75
2023/06/04 05:56:32;;;;;;;0.60;0.10;;;14.60;1.00;;;;;;4955940;28;20487;-75
2023/06/04 05:59:00;;;;;;;0.60;0.10;;;15.90;1.00;;;;;;4952226;29;20867;-76
2023/06/04 06:01:29;;;;;;;0.60;0.10;;;15.90;1.00;;;;;;4969575;29;20476;-75
2023/06/04 06:03:58;;;;;;;0.60;0.10;;;16.00;1.00;;;;;;4971996;29;20831;-75
2023/06/04 06:06:26;;;;;;;0.60;0.13;;;16.10;1.00;;;;;;4964062;28;20469;-77
2023/06/04 06:08:54;;;;;;;0.60;0.10;;;16.10;1.00;;;;;;4959357;29;20458;-76
2023/06/04 06:11:22;;;;;;;0.60;0.20;;;16.30;1.00;;;;;;4951941;29;20469;-75
2023/06/04 06:13:50;;;;;;;0.60;0.10;;;16.30;1.00;;;;;;4954658;29;20482;-75
2023/06/04 06:16:18;;;;;;;0.60;0.20;;;16.50;1.00;;;;;;4955291;28;20495;-76
2023/06/04 06:18:46;;;;;;;0.60;0.17;;;16.60;1.00;;;;;;4956677;29;20462;-77
2023/06/04 06:21:15;;;;;;;0.60;0.10;;;16.70;1.00;;;;;;4957126;29;20554;-74
2023/06/04 06:23:43;;;;;;;0.60;0.10;;;16.90;1.00;;;;;;4955825;29;20464;-75
2023/06/04 06:26:11;;;;;;;0.60;0.10;;;16.90;1.00;;;;;;4952572;28;20573;-74
2023/06/04 06:28:41;;;;;;;0.60;0.10;;;17.10;1.00;;;;;;4955358;29;20446;-74
2023/06/04 06:31:10;;;;;;;0.60;0.10;;;18.30;1.00;;;;;;4955372;29;20489;-74
2023/06/04 06:33:40;;;;;;;0.60;0.20;;;17.30;1.00;;;;;;4954875;29;20481;-74
2023/06/04 06:36:08;;;;;;;0.60;0.10;;;17.40;1.00;;;;;;4953508;28;20985;-77
2023/06/04 06:38:37;;;;;;;0.60;0.30;;;17.30;1.00;;;;;;4947565;29;20445;-77
2023/06/04 06:41:06;;;;;;;0.70;0.20;;;17.30;1.00;;;;;;4954589;29;20446;-77
2023/06/04 06:43:34;;;;;;;0.60;0.10;;;17.30;1.00;;;;;;4955366;29;20545;-77
2023/06/04 06:46:02;;;;;;;0.60;0.10;;;17.40;1.00;;;;;;4955454;29;20481;-77
2023/06/04 06:48:30;;;;;;;0.60;0.10;;;17.40;1.00;;;;;;4957160;28;20493;-77
2023/06/04 06:50:58;;;;;;;1.23;0.30;;;17.40;1.00;;;;;;4956984;28;20462;-78
2023/06/04 06:53:26;;;;;;;0.60;0.20;;;17.40;1.00;;;;;;4954478;29;20544;-77
2023/06/04 06:55:55;;;;;;;0.60;0.10;;;17.40;1.00;;;;;;4954494;29;21087;-80
2023/06/04 06:58:23;;;;;;;0.60;0.20;;;17.50;1.00;;;;;;4954667;29;20459;-77
2023/06/04 07:00:54;;;;;;;0.70;0.40;;;17.40;1.00;;;;;;4954907;29;20433;-77
2023/06/04 07:03:22;;;;;;;0.93;0.30;;;17.50;1.00;;;;;;4953946;29;20832;-76
2023/06/04 07:05:50;;;;;;;0.60;0.20;;;17.40;1.00;;;;;;4954405;28;20466;-76
2023/06/04 07:08:18;;;;;;;0.60;0.10;;;17.50;1.00;;;;;;4955535;28;20485;-76
2023/06/04 07:10:45;;;;;;;0.60;0.10;;;17.50;1.00;;;;;;4959699;29;20458;-77
2023/06/04 07:13:15;;;;;;;3.53;0.83;;;17.50;1.00;;;;;;4960450;29;20488;-77
2023/06/04 07:15:43;;;;;;;0.60;0.20;;;17.60;1.00;;;;;;4958852;28;20580;-77
2023/06/04 07:18:11;;;;;;;0.60;0.10;;;17.50;1.00;;;;;;4958918;29;20968;-76
2023/06/04 07:20:39;;;;;;;0.70;0.30;;;17.50;1.00;;;;;;4958593;29;20445;-76
2023/06/04 07:23:07;;;;;;;0.60;0.10;;;17.70;1.00;;;;;;4958573;29;20452;-77
2023/06/04 07:25:35;;;;;;;0.60;0.20;;;17.80;1.00;;;;;;4958253;29;20470;-76
2023/06/04 07:28:03;;;;;;;0.60;0.20;;;17.80;1.00;;;;;;4958361;29;20444;-77
2023/06/04 07:30:33;;;;;;;0.93;0.57;;;17.90;1.00;;;;;;4958480;29;20453;-76
2023/06/04 07:33:01;;;;;;;0.60;0.10;;;17.90;1.00;;;;;;4958229;29;20450;-77
2023/06/04 07:35:29;;;;;;;0.60;0.10;;;17.90;1.00;;;;;;4957851;29;20524;-77
2023/06/04 07:37:57;;;;;;;0.60;0.10;;;17.90;1.00;;;;;;4957678;29;20860;-76
2023/06/04 07:40:25;;;;;;;0.60;0.10;;;17.90;1.00;;;;;;4958970;29;20477;-77
2023/06/04 07:42:53;;;;;;;0.60;0.20;;;18.00;1.00;;;;;;4957220;29;20562;-76
2023/06/04 07:45:22;;;;;;;0.70;0.30;;;;;;;;;;4940089;29;21027;-76
2023/06/04 07:47:51;;;;;;;0.60;0.20;;;18.10;1.00;;;;;;4938867;29;20451;-75
2023/06/04 07:50:19;;;;;;;0.60;0.20;;;18.10;1.00;;;;;;4938051;29;20924;-76
2023/06/04 07:52:47;;;;;;;0.60;0.20;;;18.20;1.00;;;;;;4938413;29;20494;-77
2023/06/04 07:55:15;;;;;;;0.60;0.10;;;18.20;1.00;;;;;;4956795;28;20529;-77
2023/06/04 07:57:42;;;;;;;0.60;0.10;;;18.30;1.00;;;;;;4957692;29;20559;-77
2023/06/04 08:00:12;;;;;;;0.60;0.10;;;18.40;1.00;;;;;;4958774;29;20450;-77
2023/06/04 08:02:40;;;;;;;0.60;0.10;;;18.40;1.00;;;;;;4958129;28;20489;-76
2023/06/04 08:05:09;;;;;;;0.60;0.30;;;18.50;1.00;;;;;;4953084;28;21003;-75
2023/06/04 08:07:37;;;;;;;0.60;0.20;;;18.50;1.00;;;;;;4952594;29;20876;-76
2023/06/04 08:10:06;;;;;;;0.60;0.10;;;18.50;1.00;;;;;;4958010;29;20481;-76
2023/06/04 08:12:34;;;;;;;0.60;0.20;;;18.50;1.00;;;;;;4955715;29;20968;-76
2023/06/04 08:15:04;;;;;;;0.60;0.10;;;18.70;1.00;;;;;;4956150;28;20512;-76
2023/06/04 08:17:32;;;;;;;0.60;0.13;;;18.60;1.00;;;;;;4957563;29;20500;-76
2023/06/04 08:19:59;;;;;;;0.80;0.50;;;18.80;1.00;;;;;;4956960;28;20439;-76
2023/06/04 08:22:29;;;;;;;0.60;0.20;;;18.70;1.00;;;;;;4955028;29;20457;-76
2023/06/04 08:24:57;;;;;;;0.60;0.10;;;18.80;1.00;;;;;;4952350;28;20549;-80
2023/06/04 08:27:25;;;;;;;0.60;0.10;;;18.90;1.00;;;;;;4959716;28;20453;-75
2023/06/04 08:29:55;;;;;;;0.60;0.10;;;19.00;1.00;;;;;;4957594;29;20489;-76
2023/06/04 08:32:23;;;;;;;0.60;0.20;;;19.10;1.00;;;;;;4960282;28;20464;-76
2023/06/04 08:34:51;;;;;;;2.73;1.13;;;19.20;1.00;;;;;;4956270;28;21020;-76
2023/06/04 08:37:19;;;;;;;0.60;0.10;;;19.20;1.00;;;;;;4957881;29;20517;-75
2023/06/04 08:39:48;;;;;;;0.60;0.10;;;19.20;1.00;;;;;;4958716;29;20446;-76
2023/06/04 08:42:22;;;;;;;0.60;0.20;;;19.40;1.00;;;;;;4948860;29;20471;-75
2023/06/04 08:44:52;;;;;;;0.93;0.83;;;19.40;1.00;;;;;;4952181;28;20577;-75
2023/06/04 08:47:21;;;;;;;2.47;2.27;;;19.50;1.00;;;;;;4957827;29;20446;-75
2023/06/04 08:49:51;;;;;;;0.60;0.10;;;19.50;1.00;;;;;;4949642;29;20443;-75
2023/06/04 08:52:21;;;;;;;0.60;0.10;;;19.60;1.00;;;;;;4957221;29;20534;-76
2023/06/04 08:54:52;;;;;;;1.00;0.63;;;19.60;1.00;;;;;;4958297;29;20473;-76
2023/06/04 08:57:20;;;;;;;0.60;0.20;;;23.10;1.00;;;;;;4957081;29;20532;-77
2023/06/04 08:59:48;;;;;;;0.70;0.20;;;18.50;1.00;;;;;;4957111;29;20473;-76
2023/06/04 09:02:17;;;;;;;0.70;0.47;;;19.70;1.00;;;;;;4950586;29;20541;-76
2023/06/04 09:04:45;;;;;;;0.60;0.10;;;19.80;1.00;;;;;;4963908;29;20518;-76
2023/06/04 09:07:15;;;;;;;0.60;0.10;;;19.90;1.00;;;;;;4974380;29;20469;-75
2023/06/04 09:09:47;;;;;;;0.60;0.17;;;20.00;1.00;;;;;;4958816;29;20478;-75
2023/06/04 09:12:29;;;;;;;0.60;0.20;;;20.00;1.00;;;;;;4943111;29;20442;-77
2023/06/04 09:14:59;;;;;;;0.60;0.10;;;20.10;1.00;;;;;;4940933;29;20468;-76
2023/06/04 09:17:29;;;;;;;0.70;0.30;;;20.10;1.00;;;;;;4953495;28;21012;-76
2023/06/04 09:19:57;;;;;;;0.60;0.20;;;20.30;1.00;;;;;;4960460;28;20450;-76
2023/06/04 09:22:33;;;;;;;0.60;0.20;;;20.30;1.00;;;;;;4960123;28;20823;-76
2023/06/04 09:25:01;;;;;;;0.60;0.20;;;20.40;1.00;;;;;;4956947;28;20997;-75
2023/06/04 09:27:39;;;;;;;0.60;0.10;;;20.40;1.00;;;;;;4967933;28;20437;-76
2023/06/04 09:30:09;;;;;;;0.60;0.20;;;20.70;1.00;;;;;;4954395;28;20514;-76
2023/06/04 09:32:37;;;;;;;0.90;0.87;;;20.80;1.00;;;;;;4955649;29;20974;-77
2023/06/04 09:35:13;;;;;;;0.60;0.20;;;20.80;1.00;;;;;;4956439;28;20487;-76
2023/06/04 09:37:42;;;;;;;4.17;1.80;;;20.70;1.00;;;;;;4956203;29;20570;-76
2023/06/04 09:40:11;;;;;;;0.60;0.20;;;20.80;1.00;;;;;;4956086;28;20455;-76
2023/06/04 09:42:45;;;;;;;0.60;0.13;;;20.80;1.00;;;;;;4957891;28;20797;-76
2023/06/04 09:45:13;;;;;;;0.60;0.10;;;20.90;1.00;;;;;;4957003;28;20565;-76
2023/06/04 09:47:43;;;;;;;0.60;0.20;;;21.00;1.00;;;;;;4957264;29;20497;-76
2023/06/04 09:50:12;;;;;;;0.60;0.10;;;21.00;1.00;;;;;;4957125;29;20464;-76
2023/06/04 09:52:40;;;;;;;0.60;0.10;;;21.10;1.00;;;;;;4957879;28;20486;-76
2023/06/04 09:55:20;;;;;;;0.70;0.40;;;21.20;1.00;;;;;;4958486;28;20467;-75
2023/06/04 09:57:50;;;;;;;0.60;0.20;;;21.30;1.00;;;;;;4937310;29;20498;-77
2023/06/04 10:00:20;;;;;;;0.60;0.10;;;21.30;1.00;;;;;;4937591;29;20451;-75
2023/06/04 10:02:49;;;;;;;0.90;0.40;;;21.40;1.00;;;;;;4945614;29;20891;-75
2023/06/04 10:05:21;;;;;;;0.70;0.53;;;21.40;1.00;;;;;;4964479;28;20980;-77
2023/06/04 10:07:52;;;;;;;0.70;0.30;;;21.50;1.00;;;;;;4966904;28;20454;-76
2023/06/04 10:10:22;;;;;;;0.60;0.10;;;21.50;1.00;;;;;;4962374;28;20443;-76
2023/06/04 10:12:55;;;;;;;0.60;0.10;;;21.60;1.00;;;;;;4958201;28;20458;-75
2023/06/04 10:15:24;;;;;;;0.60;0.20;;;21.70;1.00;;;;;;4985814;23;21367;-73
2023/06/04 10:17:52;;;;;;;0.60;0.10;;;21.60;1.00;;;;;;4967688;28;20540;-74
2023/06/04 10:20:23;;;;;;;0.70;0.33;;;21.60;1.00;;;;;;4968415;28;20976;-75
2023/06/04 10:22:51;;;;;;;1.03;0.40;;;21.60;1.00;;;;;;4975578;28;20475;-74
2023/06/04 10:25:20;;;;;;;0.60;0.10;;;21.70;1.00;;;;;;4982317;28;20470;-74
2023/06/04 10:27:48;;;;;;;0.70;0.30;;;21.80;1.00;;;;;;4983250;28;20442;-75
2023/06/04 10:30:17;;;;;;;0.60;0.20;;;21.90;1.00;;;;;;4981351;28;20518;-76
2023/06/04 10:32:46;;;;;;;0.60;0.10;;;22.00;1.00;;;;;;4983468;28;20454;-75
2023/06/04 10:35:15;;;;;;;0.60;0.10;;;22.00;1.00;;;;;;4981051;28;20469;-74
2023/06/04 10:37:43;;;;;;;0.60;0.20;;;22.00;1.00;;;;;;4979397;28;20489;-75
2023/06/04 10:40:12;;;;;;;0.60;0.20;;;22.10;1.00;;;;;;4982831;28;20458;-75
2023/06/04 10:42:42;;;;;;;0.60;0.10;;;22.20;1.00;;;;;;4983634;28;20458;-75
2023/06/04 10:45:11;;;;;;;0.70;0.30;;;22.10;1.00;;;;;;4992012;28;20557;-75
2023/06/04 10:47:41;;;;;;;0.70;0.20;;;22.10;1.00;;;;;;5000921;28;20445;-75
2023/06/04 10:50:13;;;;;;;0.60;0.20;;;22.00;1.00;;;;;;4982328;28;20452;-76
2023/06/04 10:52:52;;;;;;;0.70;0.30;;;21.90;1.00;;;;;;4986227;28;20464;-74
2023/06/04 10:55:21;;;;;;;0.60;0.10;;;22.00;1.00;;;;;;4971063;28;20478;-74
2023/06/04 10:57:55;;;;;;;0.83;0.40;;;22.00;1.00;;;;;;4984213;28;21001;-75
2023/06/04 11:00:34;;;;;;;0.60;0.10;;;22.20;1.00;;;;;;4975560;28;20980;-75
2023/06/04 11:03:06;;;;;;;0.63;0.27;;;22.20;1.00;;;;;;4978450;28;20561;-75
2023/06/04 11:05:37;;;;;;;0.67;0.20;;;22.30;1.00;;;;;;4982401;28;20637;-76
2023/06/04 11:08:05;;;;;;;0.60;0.20;;;22.30;1.00;;;;;;4985282;28;20515;-76
2023/06/04 11:10:35;;;;;;;0.60;0.10;;;22.40;1.00;;;;;;4983694;28;20895;-76
2023/06/04 11:13:04;;;;;;;0.67;0.13;;;22.30;1.00;;;;;;4982218;28;20486;-75
2023/06/04 11:15:40;;;;;;;0.60;0.20;;;22.40;1.00;;;;;;4983095;28;20570;-75
2023/06/04 11:18:15;;;;;;;0.60;0.20;;;22.40;1.00;;;;;;4996208;28;20998;-76
2023/06/04 11:20:44;;;;;;;0.70;0.20;;;22.50;1.00;;;;;;4988954;28;20456;-75
2023/06/04 11:23:13;;;;;;;0.70;0.20;;;22.60;1.00;;;;;;4999428;28;20451;-76
2023/06/04 11:25:42;;;;;;;0.60;0.10;;;;;;;;;;4993597;28;20458;-75
2023/06/04 11:28:18;;;;;;;0.70;0.20;;;22.80;1.00;;;;;;4986051;28;20455;-76
2023/06/04 11:30:57;;;;;;;0.60;0.10;;;22.70;1.00;;;;;;4981632;28;20451;-76
2023/06/04 11:33:27;;;;;;;0.70;0.10;;;22.90;1.00;;;;;;4998345;28;20475;-74
2023/06/04 11:35:55;;;;;;;0.70;0.13;;;23.10;1.00;;;;;;4986433;28;20468;-75
2023/06/04 11:38:22;;;;;;;0.70;0.10;;;23.10;1.00;;;;;;4983790;28;20509;-77
2023/06/04 11:41:00;;;;;;;0.63;0.20;;;23.10;1.00;;;;;;4985260;28;20459;-76
2023/06/04 11:43:28;;;;;;;0.60;0.10;;;23.00;1.00;;;;;;5000651;28;20461;-78
2023/06/04 11:45:57;;;;;;;0.60;0.20;;;23.00;1.00;;;;;;4993978;28;20490;-78
2023/06/04 11:48:27;;;;;;;0.67;0.10;;;23.00;1.00;;;;;;4998611;28;20447;-77
2023/06/04 11:50:55;;;;;;;0.80;0.30;;;23.00;1.00;;;;;;4998136;28;20465;-79
2023/06/04 11:53:23;;;;;;;0.70;0.13;;;23.00;1.00;;;;;;4997319;28;20753;-77
2023/06/04 11:55:52;;;;;;;0.70;0.10;;;23.00;1.00;;;;;;4992208;28;20495;-78
2023/06/04 11:58:20;;;;;;;0.67;0.20;;;23.10;1.00;;;;;;4995627;28;20473;-77
2023/06/04 12:00:48;;;;;;;0.67;0.17;;;23.10;1.00;;;;;;5006847;28;20451;-77
2023/06/04 12:03:16;;;;;;;0.70;0.53;;;23.30;1.00;;;;;;4990095;28;20447;-76
2023/06/04 12:05:45;;;;;;;0.70;0.20;;;23.40;1.00;;;;;;4985497;28;20483;-76
2023/06/04 12:08:13;;;;;;;0.70;0.10;;;23.50;1.00;;;;;;4992044;28;20460;-76
2023/06/04 12:10:43;;;;;;;0.70;0.20;;;23.40;1.00;;;;;;4995047;28;20473;-76
2023/06/04 12:13:12;;;;;;;0.70;0.20;;;23.40;1.00;;;;;;4996398;28;20507;-77
2023/06/04 12:15:40;;;;;;;0.70;0.20;;;22.50;1.00;;;;;;5000744;28;20574;-77
2023/06/04 12:18:09;;;;;;;0.70;0.20;;;23.50;1.00;;;;;;4997234;28;20478;-77
2023/06/04 12:20:39;;;;;;;0.70;0.20;;;23.50;1.00;;;;;;5001069;28;20475;-78
2023/06/04 12:23:08;;;;;;;0.70;0.30;;;23.50;1.00;;;;;;4995873;28;20444;-77
2023/06/04 12:25:38;;;;;;;0.60;0.20;;;23.40;1.00;;;;;;4992799;28;20473;-77
2023/06/04 12:28:06;;;;;;;0.70;0.30;;;23.40;1.00;;;;;;4992524;28;20478;-77
2023/06/04 12:30:38;;;;;;;0.77;0.30;;;23.40;1.00;;;;;;5000060;28;20445;-75
2023/06/04 12:33:07;;;;;;;0.70;0.10;;;23.40;1.00;;;;;;4968945;29;20446;-78
2023/06/04 12:35:35;;;;;;;0.70;0.10;;;23.50;1.00;;;;;;4986453;28;20474;-77
2023/06/04 12:38:04;;;;;;;0.70;0.20;;;23.60;1.00;;;;;;5004887;28;20454;-77
2023/06/04 12:40:34;;;;;;;0.70;0.10;;;23.70;1.00;;;;;;4992284;28;20956;-78
2023/06/04 12:43:02;;;;;;;0.70;0.20;;;23.90;1.00;;;;;;4980283;28;20527;-78
2023/06/04 12:45:30;;;;;;;0.80;0.40;;;24.20;1.00;;;;;;4982781;28;20466;-77
2023/06/04 12:47:58;;;;;;;0.70;0.20;;;24.20;1.00;;;;;;4991156;28;20498;-78
2023/06/04 12:50:26;;;;;;;0.70;0.10;;;24.00;1.00;;;;;;4975172;28;20479;-78
2023/06/04 12:52:54;;;;;;;0.70;0.10;;;24.10;1.00;;;;;;4985994;28;20470;-78
2023/06/04 12:55:22;;;;;;;0.70;0.10;;;24.20;1.00;;;;;;4987186;28;20460;-78
2023/06/04 12:57:52;;;;;;;0.80;0.53;;;;;;;;;;4986474;28;20513;-79
2023/06/04 13:00:20;;;;;;;0.80;0.40;;;24.10;1.00;;;;;;4985345;28;20562;-77
2023/06/04 13:02:48;;;;;;;0.70;0.20;;;24.10;1.00;;;;;;4986606;28;20455;-79
2023/06/04 13:05:16;;;;;;;0.70;0.10;;;24.10;1.00;;;;;;4985834;28;20587;-77
2023/06/04 13:07:44;;;;;;;0.80;0.40;;;24.20;1.00;;;;;;4978026;28;20469;-78
2023/06/04 13:10:11;;;;;;;0.70;0.20;;;24.30;1.00;;;;;;4985204;28;20528;-78
2023/06/04 13:12:39;;;;;;;0.80;0.50;;;24.20;1.00;;;;;;4979459;28;20475;-78
2023/06/04 13:15:10;;;;;;;0.80;0.30;;;24.00;1.00;;;;;;4979771;28;20995;-78
2023/06/04 13:17:37;;;;;;;0.70;0.10;;;24.10;1.00;;;;;;4978369;28;20476;-77
2023/06/04 13:20:07;;;;;;;0.70;0.10;;;24.10;1.00;;;;;;4976455;28;20491;-77
2023/06/04 13:22:35;;;;;;;0.70;0.13;;;24.20;1.00;;;;;;4981168;28;20864;-78
2023/06/04 13:25:03;;;;;;;0.70;0.20;;;24.30;1.00;;;;;;4981637;28;20600;-78
2023/06/04 13:27:31;;;;;;;0.70;0.10;;;24.30;1.00;;;;;;4979998;28;20445;-77
2023/06/04 13:29:59;;;;;;;0.70;0.10;;;24.30;1.00;;;;;;4973727;28;20461;-77
2023/06/04 13:32:28;;;;;;;0.70;0.10;;;24.40;1.00;;;;;;4971968;28;20850;-79
2023/06/04 13:34:57;;;;;;;0.70;0.20;;;24.40;1.00;;;;;;4980920;28;20449;-78
2023/06/04 13:37:24;;;;;;;0.70;0.30;;;24.50;1.00;;;;;;4987700;28;20446;-78
2023/06/04 13:39:52;;;;;;;2.77;2.60;;;24.50;1.00;;;;;;4982069;28;20493;-79
2023/06/04 13:42:21;;;;;;;0.83;0.30;;;24.50;1.00;;;;;;4974639;28;20477;-79
2023/06/04 13:44:52;;;;;;;0.70;0.17;;;24.60;1.00;;;;;;4981207;28;20484;-78
2023/06/04 13:47:21;;;;;;;1.57;0.63;;;24.60;1.00;;;;;;4979947;28;20456;-78
2023/06/04 13:49:51;;;;;;;0.70;0.20;;;24.60;1.00;;;;;;4979838;28;20468;-76
2023/06/04 13:52:18;;;;;;;0.70;0.10;;;24.70;1.00;;;;;;4974305;28;20509;-78
2023/06/04 13:54:46;;;;;;;0.70;0.20;;;24.60;1.00;;;;;;4978258;28;20499;-81
2023/06/04 13:57:14;;;;;;;0.70;0.10;;;24.60;1.00;;;;;;4977620;28;20544;-78
2023/06/04 13:59:43;;;;;;;0.70;0.20;;;24.70;1.00;;;;;;4980578;28;20486;-78
2023/06/04 14:02:10;;;;;;;0.70;0.20;;;24.80;1.00;;;;;;4981750;28;20450;-79
2023/06/04 14:04:38;;;;;;;0.70;0.10;;;24.80;1.00;;;;;;4963766;28;21180;-78
2023/06/04 14:07:08;;;;;;;0.97;0.37;;;24.90;1.00;;;;;;4979809;28;20508;-77
2023/06/04 14:09:36;;;;;;;0.80;0.53;;;24.90;1.00;;;;;;4979798;28;20449;-78
2023/06/04 14:12:04;;;;;;;2.43;1.97;;;24.80;1.00;;;;;;4976896;28;20578;-73
2023/06/04 14:14:36;;;;;;;0.70;0.20;;;24.80;1.00;;;;;;4978267;28;20440;-78
2023/06/04 14:17:08;;;;;;;0.70;0.10;;;24.80;1.00;;;;;;4974870;28;21031;-78
2023/06/04 14:19:37;;;;;;;0.80;0.30;;;;;;;;;;4982604;28;20481;-79
2023/06/04 14:22:06;;;;;;;0.70;0.30;;;25.00;1.00;;;;;;4980232;28;20442;-79
2023/06/04 14:24:35;;;;;;;0.70;0.20;;;;;;;;;;4980944;28;20492;-78
2023/06/04 14:27:03;;;;;;;0.70;0.10;;;25.10;1.00;;;;;;4984786;28;20476;-79
2023/06/04 14:29:31;;;;;;;0.70;0.20;;;25.10;1.00;;;;;;4966057;28;20514;-78
2023/06/04 14:31:59;;;;;;;0.70;0.20;;;25.10;1.00;;;;;;4972056;28;20444;-78
2023/06/04 14:34:27;;;;;;;3.73;1.43;;;25.10;1.00;;;;;;4982600;28;20458;-78
2023/06/04 14:36:57;;;;;;;0.70;0.20;;;25.30;1.00;;;;;;4982430;28;20486;-77
2023/06/04 14:39:26;;;;;;;0.70;0.10;;;25.50;1.00;;;;;;4982632;28;20470;-78
2023/06/04 14:41:54;;;;;;;0.70;0.20;;;;;;;;;;4982822;28;20449;-77
2023/06/04 14:44:22;;;;;;;0.70;0.20;;;25.50;1.00;;;;;;4978998;28;20595;-77
2023/06/04 14:46:51;;;;;;;0.70;0.17;;;;;;;;;;4978536;28;20557;-77
2023/06/04 14:49:20;;;;;;;0.70;0.30;;;25.60;1.00;;;;;;4982128;28;20484;-78
2023/06/04 14:51:48;;;;;;;0.70;0.10;;;25.60;1.00;;;;;;4985413;28;20474;-78
2023/06/04 14:54:16;;;;;;;0.70;0.10;;;25.60;1.00;;;;;;4986286;28;20469;-79
2023/06/04 14:56:46;;;;;;;0.70;0.10;;;25.60;1.00;;;;;;4986666;28;20458;-78
2023/06/04 14:59:14;;;;;;;0.80;0.30;;;25.70;1.00;;;;;;4983876;28;20453;-79
2023/06/04 15:01:43;;;;;;;0.70;0.20;;;25.70;1.00;;;;;;4986560;28;20458;-78
2023/06/04 15:04:11;;;;;;;1.17;1.07;;;25.70;1.00;;;;;;4990940;28;20442;-77
2023/06/04 15:06:39;;;;;;;0.70;0.17;;;25.70;1.00;;;;;;4997463;28;20468;-77
2023/06/04 15:09:08;;;;;;;0.70;0.10;;;;;;;;;;4985539;28;20500;-78
2023/06/04 15:11:36;;;;;;;0.93;0.60;;;;;;;;;;4980365;28;20441;-76
2023/06/04 15:14:05;;;;;;;0.70;0.10;;;26.00;1.00;;;;;;4978761;28;20508;-78
2023/06/04 15:16:33;;;;;;;0.70;0.20;;;26.10;1.00;;;;;;4977547;28;20524;-78
2023/06/04 15:19:01;;;;;;;0.70;0.10;;;26.10;1.00;;;;;;4978303;28;20488;-77
2023/06/04 15:21:30;;;;;;;0.70;0.13;;;26.20;1.00;;;;;;4983247;28;20534;-78
2023/06/04 15:23:58;;;;;;;0.70;0.20;;;26.40;1.00;;;;;;4989106;28;21108;-78
2023/06/04 15:26:26;;;;;;;2.00;1.40;;;26.70;1.00;;;;;;4988639;28;20461;-76
2023/06/04 15:28:56;;;;;;;0.70;0.10;;;26.80;1.00;;;;;;4988410;28;20533;-76
2023/06/04 15:31:25;;;;;;;0.70;0.30;;;26.80;1.00;;;;;;4996583;28;20499;-77
2023/06/04 15:33:53;;;;;;;0.70;0.20;;;26.90;1.00;;;;;;4991918;28;20452;-78
2023/06/04 15:36:21;;;;;;;0.70;0.30;;;26.90;1.00;;;;;;4996317;28;20480;-79
2023/06/04 15:38:50;;;;;;;0.70;0.10;;;26.80;1.00;;;;;;4996178;28;20449;-80
2023/06/04 15:41:21;;;;;;;0.70;0.20;;;26.70;1.00;;;;;;5003267;28;20480;-78
2023/06/04 15:43:49;;;;;;;0.80;0.30;;;26.80;1.00;;;;;;4995426;28;20433;-75
2023/06/04 15:46:17;;;;;;;0.70;0.20;;;26.80;1.00;;;;;;4991716;28;21083;-76
2023/06/04 15:48:47;;;;;;;0.70;0.20;;;26.80;1.00;;;;;;4999521;28;20457;-79
2023/06/04 15:51:15;;;;;;;0.77;0.30;;;26.90;1.00;;;;;;5005093;28;20503;-78
2023/06/04 15:53:44;;;;;;;0.70;0.20;;;27.00;1.00;;;;;;4999214;28;20956;-78
2023/06/04 15:56:13;;;;;;;0.70;0.27;;;27.00;1.00;;;;;;4980531;28;20469;-77
2023/06/04 15:58:41;;;;;;;0.70;0.30;;;26.90;1.00;;;;;;4982616;28;20450;-78
2023/06/04 16:01:09;;;;;;;0.70;0.20;;;26.80;1.00;;;;;;4983907;28;20536;-79
2023/06/04 16:03:37;;;;;;;0.70;0.20;;;26.90;1.00;;;;;;4983124;28;20446;-77
2023/06/04 16:06:06;;;;;;;0.70;0.20;;;27.30;1.00;;;;;;4985225;28;20469;-77
2023/06/04 16:08:34;;;;;;;4.33;2.43;;;27.20;1.00;;;;;;4984655;28;20457;-77
2023/06/04 16:11:03;;;;;;;2.40;1.60;;;27.30;1.00;;;;;;4992254;28;20462;-76
2023/06/04 16:13:30;;;;;;;0.70;0.10;;;27.30;1.00;;;;;;4982097;28;20446;-79
2023/06/04 16:15:59;;;;;;;0.70;0.20;;;27.30;1.00;;;;;;4982942;28;20536;-76
2023/06/04 16:18:30;;;;;;;2.03;1.27;;;27.40;1.00;;;;;;4976214;28;20467;-77
2023/06/04 16:20:59;;;;;;;0.90;0.40;;;27.60;1.00;;;;;;4976525;28;20505;-77
2023/06/04 16:23:29;;;;;;;0.70;0.10;;;27.60;1.00;;;;;;4976266;28;20456;-76
2023/06/04 16:25:56;;;;;;;1.23;1.13;;;27.40;1.00;;;;;;4975909;28;20478;-74
2023/06/04 16:28:24;;;;;;;1.80;1.70;;;27.40;1.00;;;;;;4976111;28;20455;-75
2023/06/04 16:30:53;;;;;;;1.27;0.63;;;27.60;1.00;;;;;;4975892;28;20553;-76
2023/06/04 16:33:21;;;;;;;0.80;0.50;;;27.70;1.00;;;;;;4976294;28;20520;-77
2023/06/04 16:35:48;;;;;;;0.87;0.57;;;27.80;1.00;;;;;;4977774;28;20469;-78
2023/06/04 16:38:17;;;;;;;0.70;0.10;;;27.90;1.00;;;;;;4976169;28;20449;-76
2023/06/04 16:40:46;;;;;;;1.40;0.57;;;28.00;1.00;;;;;;4971988;28;20536;-75
2023/06/04 16:43:15;;;;;;;1.10;0.60;;;28.00;1.00;;;;;;4969937;28;20461;-78
2023/06/04 16:45:43;;;;;;;0.70;0.20;;;27.70;1.00;;;;;;4975562;28;20461;-74
2023/06/04 16:48:11;;;;;;;0.70;0.10;;;27.50;1.00;;;;;;4984099;28;20472;-79
2023/06/04 16:50:40;;;;;;;0.70;0.30;;;27.60;1.00;;;;;;4978203;28;20448;-75
2023/06/04 16:53:08;;;;;;;1.13;0.50;;;27.70;1.00;;;;;;4994914;28;20888;-74
2023/06/04 16:55:37;;;;;;;0.70;0.30;;;27.50;1.00;;;;;;4994254;28;20512;-74
2023/06/04 16:58:07;;;;;;;0.70;0.20;;;27.30;1.00;;;;;;4995309;28;20460;-75
2023/06/04 17:00:35;;;;;;;0.70;0.10;;;27.30;1.00;;;;;;4993858;28;20535;-75
2023/06/04 17:03:03;;;;;;;1.63;0.70;;;27.30;1.00;;;;;;4975719;28;20476;-74
2023/06/04 17:05:31;;;;;;;0.70;0.17;;;27.30;1.00;;;;;;4976521;28;20484;-72
2023/06/04 17:07:59;;;;;;;0.70;0.10;;;27.40;1.00;;;;;;4976560;28;20446;-75